Time;durP1;ratioP1;P1;durP2;ratioP2;P2;SDS_P1;SDS_P2;PMS_P1;PMS_P2;Temp;Humidity;BMP_temperature;BMP_pressure;BME280_temperature;BME280_humidity;BME280_pressure;Samples;Min_cycle;Max_cycle;Signal;HPM_P1;HPM_P2
2024/04/19 00:01:09;;;;;;;5.80;3.67;;;7.80;99.90;;;;;;5382304;26;20431;-68
2024/04/19 00:03:35;;;;;;;7.10;4.50;;;7.80;99.90;;;;;;5382528;26;19999;-69
2024/04/19 00:06:00;;;;;;;9.05;4.38;;;7.70;99.90;;;;;;5382430;26;19988;-68
2024/04/19 00:08:26;;;;;;;16.92;4.03;;;7.70;1.00;;;;;;5382550;26;19993;-69
2024/04/19 00:10:54;;;;;;;10.63;4.80;;;7.80;99.90;;;;;;5382255;26;19992;-68
2024/04/19 00:13:21;;;;;;;13.38;4.38;;;7.80;99.90;;;;;;5382713;26;19999;-68
2024/04/19 00:15:46;;;;;;;9.82;4.45;;;7.80;1.00;;;;;;5382312;26;19988;-69
2024/04/19 00:18:12;;;;;;;12.88;5.05;;;7.80;1.00;;;;;;5381665;26;20066;-69
2024/04/19 00:20:39;;;;;;;11.30;4.50;;;7.70;99.90;;;;;;5381903;26;19992;-69
2024/04/19 00:23:05;;;;;;;11.20;4.70;;;7.70;99.90;;;;;;5382179;26;20058;-68
2024/04/19 00:25:34;;;;;;;12.93;5.20;;;7.80;99.90;;;;;;5381802;26;19992;-68
2024/04/19 00:27:59;;;;;;;10.85;4.47;;;7.70;99.90;;;;;;5381850;26;20000;-70
2024/04/19 00:30:25;;;;;;;8.65;4.07;;;7.80;99.90;;;;;;5381764;26;20318;-69
2024/04/19 00:32:51;;;;;;;8.95;4.85;;;7.80;99.90;;;;;;5381636;26;20511;-69
2024/04/19 00:35:17;;;;;;;12.55;5.10;;;7.80;23.50;;;;;;5381648;26;19992;-68
2024/04/19 00:37:43;;;;;;;9.35;4.82;;;7.70;99.90;;;;;;5381569;26;19988;-68
2024/04/19 00:40:09;;;;;;;12.80;4.30;;;7.70;1.00;;;;;;5381323;26;20065;-69
2024/04/19 00:42:34;;;;;;;9.30;3.97;;;7.70;99.90;;;;;;5381796;26;19992;-69
2024/04/19 00:45:00;;;;;;;8.27;3.92;;;7.70;99.90;;;;;;5382055;26;20001;-68
2024/04/19 00:47:26;;;;;;;8.02;4.30;;;7.70;99.90;;;;;;5385137;26;19997;-68
2024/04/19 00:49:52;;;;;;;10.70;3.92;;;7.70;1.00;;;;;;5385215;26;20002;-68
2024/04/19 00:52:18;;;;;;;10.48;4.43;;;7.70;99.90;;;;;;5384955;26;20000;-68
2024/04/19 00:54:45;;;;;;;10.57;4.47;;;7.70;67.70;;;;;;5384892;26;19995;-68
2024/04/19 00:57:11;;;;;;;8.25;4.50;;;7.70;99.90;;;;;;5384738;26;20020;-68
2024/04/19 00:59:38;;;;;;;9.60;4.78;;;7.60;99.90;;;;;;5384709;26;19988;-68
2024/04/19 01:02:04;;;;;;;12.55;4.93;;;7.60;99.90;;;;;;5384486;26;20038;-68
2024/04/19 01:04:30;;;;;;;9.95;5.32;;;7.50;1.00;;;;;;5384768;26;19996;-69
2024/04/19 01:06:56;;;;;;;11.65;6.00;;;7.40;1.00;;;;;;5384528;26;19992;-68
2024/04/19 01:09:21;;;;;;;16.33;7.70;;;7.20;1.00;;;;;;5384551;26;20031;-68
2024/04/19 01:11:48;;;;;;;15.50;8.18;;;7.00;15.50;;;;;;5384647;26;19992;-68
2024/04/19 01:14:13;;;;;;;16.35;7.22;;;7.00;82.90;;;;;;5384610;26;20018;-68
2024/04/19 01:16:39;;;;;;;18.48;8.10;;;6.80;99.90;;;;;;5384827;26;19992;-68
2024/04/19 01:19:07;;;;;;;13.65;7.25;;;6.80;99.90;;;;;;5384538;26;20002;-68
2024/04/19 01:21:32;;;;;;;17.67;8.60;;;6.70;99.90;;;;;;5384311;26;20330;-69
2024/04/19 01:24:08;;;;;;;15.93;7.97;;;6.60;99.90;;;;;;5384394;26;19989;-69
2024/04/19 01:26:34;;;;;;;14.32;8.27;;;6.70;99.90;;;;;;5384293;26;20003;-69
2024/04/19 01:28:59;;;;;;;15.90;6.88;;;6.60;99.90;;;;;;5384426;26;19993;-69
2024/04/19 01:31:25;;;;;;;13.40;6.88;;;6.60;99.90;;;;;;5384334;26;19988;-69
2024/04/19 01:33:51;;;;;;;12.15;6.57;;;6.70;99.90;;;;;;5384131;26;19989;-68
2024/04/19 01:36:16;;;;;;;12.60;6.22;;;6.60;99.90;;;;;;5384090;26;20073;-68
2024/04/19 01:38:42;;;;;;;13.35;6.40;;;6.60;99.90;;;;;;5384059;26;20001;-69
2024/04/19 01:41:08;;;;;;;10.82;6.03;;;6.60;99.90;;;;;;5384370;26;19988;-68
2024/04/19 01:43:33;;;;;;;12.43;6.55;;;6.60;99.90;;;;;;5384318;26;19992;-68
2024/04/19 01:45:59;;;;;;;10.52;5.97;;;6.60;99.90;;;;;;5384272;26;20000;-68
2024/04/19 01:48:24;;;;;;;15.98;6.35;;;6.50;99.90;;;;;;5383834;26;19992;-68
2024/04/19 01:50:50;;;;;;;14.05;6.47;;;6.50;99.90;;;;;;5383919;26;20063;-69
2024/04/19 01:53:16;;;;;;;15.10;6.93;;;6.40;99.90;;;;;;5383950;26;19992;-68
2024/04/19 01:55:41;;;;;;;13.40;7.05;;;6.40;99.90;;;;;;5383969;26;20003;-68
2024/04/19 01:58:07;;;;;;;11.40;7.15;;;6.40;99.90;;;;;;5383310;26;19999;-68
2024/04/19 02:00:32;;;;;;;13.15;6.63;;;6.40;99.90;;;;;;5384198;26;20307;-67
2024/04/19 02:02:58;;;;;;;18.23;6.93;;;6.40;99.90;;;;;;5383696;26;20000;-67
2024/04/19 02:05:23;;;;;;;12.15;6.80;;;6.10;99.90;;;;;;5383571;26;20003;-68
2024/04/19 02:07:51;;;;;;;11.55;7.30;;;6.60;99.90;;;;;;5384012;26;20160;-68
2024/04/19 02:10:16;;;;;;;15.80;7.25;;;6.20;99.90;;;;;;5383707;26;20396;-68
2024/04/19 02:12:42;;;;;;;13.77;7.53;;;6.20;99.90;;;;;;5383476;26;19988;-68
2024/04/19 02:15:07;;;;;;;14.15;7.65;;;6.30;99.90;;;;;;5383638;26;20450;-68
2024/04/19 02:17:33;;;;;;;18.85;8.93;;;6.30;99.90;;;;;;5383469;26;20462;-69
2024/04/19 02:19:59;;;;;;;17.20;7.78;;;6.30;99.90;;;;;;5383624;26;19988;-69
2024/04/19 02:22:24;;;;;;;13.57;8.27;;;6.20;99.90;;;;;;5383823;26;20070;-69
2024/04/19 02:24:50;;;;;;;13.10;7.53;;;6.10;99.90;;;;;;5383746;26;20326;-69
2024/04/19 02:32:46;;;;;;;11.65;7.20;;;6.20;99.90;;;;;;5383686;26;19996;-69
2024/04/19 02:35:12;;;;;;;12.80;7.10;;;6.30;99.90;;;;;;5383261;26;19992;-69
2024/04/19 02:37:38;;;;;;;12.15;8.07;;;6.20;99.90;;;;;;5383520;26;19992;-68
2024/04/19 02:40:04;;;;;;;15.25;9.07;;;6.20;99.90;;;;;;5383303;26;20003;-68
2024/04/19 02:42:29;;;;;;;12.32;7.97;;;6.20;99.90;;;;;;5383093;26;20003;-69
2024/04/19 02:44:55;;;;;;;16.25;7.70;;;6.20;99.90;;;;;;5383395;26;19988;-69
2024/04/19 02:47:20;;;;;;;12.02;8.13;;;6.50;99.90;;;;;;5383167;26;20454;-68
2024/04/19 02:49:46;;;;;;;12.30;8.18;;;6.10;99.90;;;;;;5383527;26;20035;-68
2024/04/19 02:52:12;;;;;;;11.60;7.00;;;6.10;99.90;;;;;;5383582;26;20004;-69
2024/04/19 02:54:38;;;;;;;12.40;7.65;;;6.10;99.90;;;;;;5383312;26;20553;-68
2024/04/19 02:57:03;;;;;;;19.33;8.75;;;6.20;99.90;;;;;;5383265;26;19999;-69
2024/04/19 02:59:29;;;;;;;15.52;7.97;;;6.10;99.90;;;;;;5382857;26;20002;-68
2024/04/19 03:01:55;;;;;;;12.77;7.03;;;6.00;99.90;;;;;;5383273;26;20000;-69
2024/04/19 03:04:20;;;;;;;12.35;7.15;;;6.10;99.90;;;;;;5382968;26;20000;-69
2024/04/19 03:06:46;;;;;;;12.43;7.80;;;6.10;99.90;;;;;;5383192;26;19989;-68
2024/04/19 03:09:12;;;;;;;14.13;7.65;;;6.20;99.90;;;;;;5381354;26;20075;-68
2024/04/19 03:11:37;;;;;;;13.05;7.72;;;6.00;99.90;;;;;;5383006;26;19988;-69
2024/04/19 03:14:03;;;;;;;14.48;8.20;;;6.10;99.90;;;;;;5382948;26;20004;-69
2024/04/19 03:16:28;;;;;;;11.95;7.30;;;6.20;99.90;;;;;;5382918;26;19992;-69
2024/04/19 03:18:54;;;;;;;11.73;7.47;;;6.00;99.90;;;;;;5383177;26;20000;-68
2024/04/19 03:21:19;;;;;;;12.50;7.75;;;6.00;99.90;;;;;;5383080;26;19999;-68
2024/04/19 03:23:45;;;;;;;12.75;7.93;;;6.00;99.90;;;;;;5383107;26;20004;-68
2024/04/19 03:26:11;;;;;;;11.38;7.43;;;6.00;99.90;;;;;;5383266;26;20062;-68
2024/04/19 03:28:36;;;;;;;17.00;8.40;;;6.00;99.90;;;;;;5383116;26;19999;-69
2024/04/19 03:31:05;;;;;;;13.07;8.32;;;6.00;99.90;;;;;;5383209;26;19992;-69
2024/04/19 03:33:31;;;;;;;14.05;8.13;;;6.10;99.90;;;;;;5382856;26;19996;-69
2024/04/19 03:35:57;;;;;;;13.35;8.40;;;6.10;99.90;;;;;;5382859;26;20350;-68
2024/04/19 03:38:24;;;;;;;13.75;8.43;;;6.00;99.90;;;;;;5382382;26;19992;-68
2024/04/19 03:40:54;;;;;;;14.95;9.50;;;6.10;99.90;;;;;;5382205;26;20003;-68
2024/04/19 03:43:21;;;;;;;15.60;9.32;;;6.00;99.90;;;;;;5382442;26;20003;-68
2024/04/19 03:45:47;;;;;;;18.40;10.20;;;6.10;99.90;;;;;;5382497;26;19988;-69
2024/04/19 03:48:12;;;;;;;16.17;11.00;;;6.10;99.90;;;;;;5382148;26;19996;-69
2024/04/19 03:50:39;;;;;;;17.13;10.65;;;6.10;99.90;;;;;;5382849;26;20061;-69
2024/04/19 03:53:04;;;;;;;15.88;10.25;;;6.10;99.90;;;;;;5382466;26;20000;-68
2024/04/19 03:55:30;;;;;;;16.55;10.80;;;6.10;99.90;;;;;;5382649;26;20384;-68
2024/04/19 03:57:56;;;;;;;18.10;11.55;;;6.10;99.90;;;;;;5382667;26;20342;-68
2024/04/19 04:00:22;;;;;;;24.05;13.07;;;6.20;99.90;;;;;;5382278;26;19988;-68
2024/04/19 04:02:50;;;;;;;18.10;12.50;;;6.20;99.90;;;;;;5382229;26;19996;-68
2024/04/19 04:05:15;;;;;;;20.65;12.52;;;6.10;99.90;;;;;;5382749;26;19992;-69
2024/04/19 04:07:41;;;;;;;20.02;12.68;;;6.20;99.90;;;;;;5382159;26;20337;-68
2024/04/19 04:10:07;;;;;;;20.80;13.70;;;6.10;99.90;;;;;;5381867;26;20006;-69
2024/04/19 04:12:33;;;;;;;21.25;13.88;;;6.20;99.90;;;;;;5381991;26;20000;-69
2024/04/19 04:14:59;;;;;;;21.35;14.02;;;6.10;99.90;;;;;;5382158;26;20034;-68
2024/04/19 04:17:25;;;;;;;21.73;14.23;;;6.50;99.90;;;;;;5382087;26;20004;-68
2024/04/19 04:19:51;;;;;;;22.38;14.35;;;6.10;99.90;;;;;;5381562;26;20098;-69
2024/04/19 04:22:16;;;;;;;24.98;15.85;;;6.20;99.90;;;;;;5382073;26;20007;-68
2024/04/19 04:24:42;;;;;;;21.60;15.32;;;6.10;99.90;;;;;;5382276;26;19992;-68
2024/04/19 04:27:08;;;;;;;26.75;16.67;;;6.20;99.90;;;;;;5382218;26;20000;-69
2024/04/19 04:29:33;;;;;;;23.92;15.95;;;6.10;99.90;;;;;;5381921;26;20318;-68
2024/04/19 04:31:59;;;;;;;26.60;16.40;;;6.20;99.90;;;;;;5382418;26;20516;-69
2024/04/19 04:34:24;;;;;;;25.88;15.52;;;6.20;99.90;;;;;;5382181;26;20004;-68
2024/04/19 04:36:50;;;;;;;25.08;15.52;;;6.10;99.90;;;;;;5382160;26;20323;-68
2024/04/19 04:39:16;;;;;;;24.42;15.90;;;6.20;99.90;;;;;;5382314;26;19990;-68
2024/04/19 04:41:42;;;;;;;21.40;15.18;;;6.20;99.90;;;;;;5382000;26;19992;-69
2024/04/19 04:44:07;;;;;;;23.65;15.30;;;6.20;99.90;;;;;;5382018;26;20503;-70
2024/04/19 04:46:34;;;;;;;24.13;14.82;;;6.20;99.90;;;;;;5382046;26;20007;-68
2024/04/19 04:49:00;;;;;;;22.83;15.57;;;6.20;99.90;;;;;;5381734;26;20003;-69
2024/04/19 04:51:26;;;;;;;22.27;14.32;;;6.30;99.90;;;;;;5381903;26;19992;-68
2024/04/19 04:53:52;;;;;;;26.45;15.73;;;6.20;99.90;;;;;;5381530;26;20024;-69
2024/04/19 04:56:17;;;;;;;20.25;14.70;;;6.20;99.90;;;;;;5382030;26;19992;-69
2024/04/19 04:58:44;;;;;;;22.27;15.57;;;6.20;99.90;;;;;;5381782;26;20309;-68
2024/04/19 05:01:10;;;;;;;22.67;14.70;;;6.20;99.90;;;;;;5381424;26;19993;-69
2024/04/19 05:03:35;;;;;;;21.38;13.60;;;6.20;99.90;;;;;;5381656;26;20322;-69
2024/04/19 05:06:01;;;;;;;17.90;13.10;;;6.20;99.90;;;;;;5381434;26;20065;-69
2024/04/19 05:08:26;;;;;;;22.13;15.35;;;6.20;99.90;;;;;;5381570;26;20445;-68
2024/04/19 05:10:52;;;;;;;17.08;11.57;;;6.20;99.90;;;;;;5381143;26;19996;-68
2024/04/19 05:13:18;;;;;;;21.13;14.73;;;6.20;99.90;;;;;;5381445;26;20335;-68
2024/04/19 05:15:44;;;;;;;15.27;10.90;;;6.20;99.90;;;;;;5381241;26;19993;-69
2024/04/19 05:18:09;;;;;;;17.45;11.23;;;6.20;99.90;;;;;;5380983;26;20003;-68
2024/04/19 05:20:35;;;;;;;15.07;9.32;;;6.20;99.90;;;;;;5380649;26;19992;-68
2024/04/19 05:23:00;;;;;;;15.82;10.80;;;6.20;99.90;;;;;;5380780;26;20070;-69
2024/04/19 05:25:26;;;;;;;20.75;12.85;;;6.10;99.90;;;;;;5381315;26;19993;-69
2024/04/19 05:27:52;;;;;;;11.70;8.45;;;6.20;99.90;;;;;;5380921;26;19992;-69
2024/04/19 05:30:17;;;;;;;15.13;9.73;;;6.20;99.90;;;;;;5380711;26;20003;-68
2024/04/19 05:32:43;;;;;;;22.50;12.48;;;6.20;99.90;;;;;;5382323;26;19988;-68
2024/04/19 05:35:09;;;;;;;36.05;22.45;;;6.30;99.90;;;;;;5384406;26;20008;-68
2024/04/19 05:37:34;;;;;;;21.58;11.77;;;5.90;99.90;;;;;;5384595;26;19996;-69
2024/04/19 05:40:00;;;;;;;17.77;11.85;;;6.30;99.90;;;;;;5384126;26;20004;-69
2024/04/19 05:42:25;;;;;;;15.15;9.40;;;6.30;99.90;;;;;;5384338;26;19993;-69
2024/04/19 05:44:51;;;;;;;13.93;9.05;;;6.70;99.90;;;;;;5383911;26;19992;-68
2024/04/19 05:47:16;;;;;;;14.88;10.32;;;6.30;99.90;;;;;;5384225;26;20326;-68
2024/04/19 05:49:43;;;;;;;14.38;9.80;;;6.20;99.90;;;;;;5383739;26;20008;-68
2024/04/19 05:52:08;;;;;;;16.50;10.68;;;6.20;99.90;;;;;;5383824;26;20431;-68
2024/04/19 05:54:34;;;;;;;14.50;9.07;;;6.20;99.90;;;;;;5384155;26;20020;-69
2024/04/19 05:57:00;;;;;;;16.42;10.15;;;6.30;99.90;;;;;;5383841;26;19992;-68
2024/04/19 05:59:25;;;;;;;16.55;9.23;;;6.30;99.90;;;;;;5383721;26;19996;-68
2024/04/19 06:01:51;;;;;;;14.13;9.45;;;6.30;99.90;;;;;;5383721;26;20331;-68
2024/04/19 06:04:17;;;;;;;15.25;10.23;;;6.30;99.90;;;;;;5384274;26;19988;-69
2024/04/19 06:06:42;;;;;;;14.57;9.68;;;6.30;99.90;;;;;;5383540;26;19992;-69
2024/04/19 06:09:08;;;;;;;14.95;10.27;;;6.30;99.90;;;;;;5383139;26;20014;-68
2024/04/19 06:11:34;;;;;;;17.02;11.73;;;6.30;99.90;;;;;;5413675;26;19995;-68
2024/04/19 06:13:59;;;;;;;16.63;10.32;;;6.30;99.90;;;;;;5419493;26;19987;-68
2024/04/19 06:16:25;;;;;;;14.90;10.30;;;6.30;99.90;;;;;;5419152;26;19995;-68
2024/04/19 06:18:51;;;;;;;16.25;9.90;;;6.30;99.90;;;;;;5419461;26;19987;-69
2024/04/19 06:21:16;;;;;;;12.63;9.30;;;6.30;99.90;;;;;;5419334;26;19987;-68
2024/04/19 06:23:42;;;;;;;15.93;10.02;;;6.30;99.90;;;;;;5419212;26;20342;-68
2024/04/19 06:26:07;;;;;;;16.33;9.80;;;6.20;99.90;;;;;;5419026;26;20006;-68
2024/04/19 06:28:35;;;;;;;13.55;9.85;;;6.20;99.90;;;;;;5419010;26;20002;-69
2024/04/19 06:31:09;;;;;;;12.93;9.05;;;6.30;99.90;;;;;;5418823;26;20003;-68
2024/04/19 06:33:35;;;;;;;15.40;9.45;;;6.30;99.90;;;;;;5418753;26;19988;-68
2024/04/19 06:36:01;;;;;;;14.30;9.38;;;6.20;99.90;;;;;;5418777;26;19999;-68
2024/04/19 06:38:26;;;;;;;15.35;9.65;;;6.30;99.90;;;;;;5419312;26;19992;-68
2024/04/19 06:40:52;;;;;;;15.55;10.05;;;6.30;99.90;;;;;;5418893;26;19998;-68
2024/04/19 06:43:19;;;;;;;13.77;10.43;;;6.30;99.90;;;;;;5418585;26;19999;-69
2024/04/19 06:45:45;;;;;;;13.40;9.45;;;6.30;99.90;;;;;;5418958;26;19994;-68
2024/04/19 06:48:10;;;;;;;15.35;10.18;;;6.40;99.90;;;;;;5418559;26;20014;-69
2024/04/19 06:50:36;;;;;;;13.98;10.13;;;6.40;99.90;;;;;;5418695;26;20064;-68
2024/04/19 06:53:02;;;;;;;15.82;10.43;;;6.40;99.90;;;;;;5419234;26;19999;-68
2024/04/19 06:55:27;;;;;;;15.00;10.00;;;6.50;99.90;;;;;;5419132;26;19999;-68
2024/04/19 06:57:55;;;;;;;14.23;10.75;;;6.50;99.90;;;;;;5418738;26;19998;-68
2024/04/19 07:00:21;;;;;;;13.50;10.13;;;6.50;99.90;;;;;;5418702;26;20323;-69
2024/04/19 07:02:48;;;;;;;12.52;9.77;;;6.50;99.90;;;;;;5418404;26;19987;-69
2024/04/19 07:05:14;;;;;;;14.55;9.27;;;6.60;99.90;;;;;;5418626;26;19999;-68
2024/04/19 07:07:39;;;;;;;14.40;9.90;;;6.60;99.90;;;;;;5418586;26;20060;-69
2024/04/19 07:10:06;;;;;;;13.93;9.60;;;6.60;99.90;;;;;;5418627;26;19999;-69
2024/04/19 07:12:32;;;;;;;13.27;9.85;;;6.70;99.90;;;;;;5418296;26;19988;-69
2024/04/19 07:14:59;;;;;;;14.77;10.20;;;6.70;99.90;;;;;;5418269;26;20064;-69
2024/04/19 07:17:24;;;;;;;14.77;9.90;;;6.70;99.90;;;;;;5418387;26;19991;-68
2024/04/19 07:19:50;;;;;;;13.82;9.35;;;6.80;99.90;;;;;;5418398;26;20010;-68
2024/04/19 07:22:17;;;;;;;14.60;9.55;;;6.80;99.90;;;;;;5418140;26;19999;-69
2024/04/19 07:24:43;;;;;;;13.95;9.57;;;6.80;99.90;;;;;;5418168;26;19987;-69
2024/04/19 07:27:08;;;;;;;12.60;9.00;;;6.80;99.90;;;;;;5418615;26;19998;-68
2024/04/19 07:29:34;;;;;;;13.10;9.20;;;6.80;99.90;;;;;;5418158;26;20028;-68
2024/04/19 07:32:00;;;;;;;12.80;9.18;;;6.80;99.90;;;;;;5418429;26;20064;-68
2024/04/19 07:34:27;;;;;;;17.02;9.60;;;6.90;99.90;;;;;;5417992;26;20013;-68
2024/04/19 07:36:53;;;;;;;12.73;9.50;;;6.90;99.90;;;;;;5418178;26;20007;-68
2024/04/19 07:39:18;;;;;;;12.65;9.75;;;6.90;99.90;;;;;;5418051;26;20002;-68
2024/04/19 07:41:44;;;;;;;16.60;10.88;;;7.00;99.90;;;;;;5418125;26;20438;-70
2024/04/19 07:44:10;;;;;;;15.00;10.02;;;7.00;99.90;;;;;;5417838;26;20143;-69
2024/04/19 07:46:36;;;;;;;11.70;9.52;;;7.00;99.90;;;;;;5417891;26;20007;-68
2024/04/19 07:49:01;;;;;;;18.20;10.27;;;6.90;99.90;;;;;;5418144;26;20060;-68
2024/04/19 07:51:27;;;;;;;15.57;10.15;;;7.00;99.90;;;;;;5418139;26;19987;-68
2024/04/19 07:53:53;;;;;;;14.77;10.88;;;7.00;99.90;;;;;;5417785;26;20003;-67
2024/04/19 07:56:18;;;;;;;17.08;10.82;;;7.00;99.90;;;;;;5416750;26;20425;-68
2024/04/19 07:58:45;;;;;;;15.68;10.30;;;7.10;99.90;;;;;;5417690;26;20007;-68
2024/04/19 08:01:10;;;;;;;17.00;11.43;;;7.10;99.90;;;;;;5417713;26;19998;-67
2024/04/19 08:03:36;;;;;;;15.35;10.65;;;7.10;99.90;;;;;;5417979;26;20007;-68
2024/04/19 08:06:02;;;;;;;17.10;12.40;;;7.20;99.90;;;;;;5417764;26;19999;-68
2024/04/19 08:08:27;;;;;;;23.88;12.80;;;7.20;99.90;;;;;;5418343;26;20042;-68
2024/04/19 08:10:53;;;;;;;19.45;13.48;;;7.20;99.90;;;;;;5417585;26;20339;-68
2024/04/19 08:13:19;;;;;;;22.60;14.57;;;7.30;99.90;;;;;;5417619;26;19991;-67
2024/04/19 08:15:44;;;;;;;23.70;14.88;;;7.30;99.90;;;;;;5417312;26;20003;-67
2024/04/19 08:18:10;;;;;;;24.13;15.63;;;7.30;99.90;;;;;;5417540;26;20442;-67
2024/04/19 08:20:35;;;;;;;24.00;16.17;;;7.40;99.90;;;;;;5417600;26;19999;-67
2024/04/19 08:23:01;;;;;;;26.85;17.77;;;7.40;99.90;;;;;;5417508;26;20032;-67
2024/04/19 08:25:27;;;;;;;30.63;17.73;;;7.40;99.90;;;;;;5417619;26;20412;-68
2024/04/19 08:27:53;;;;;;;35.15;21.02;;;7.40;99.90;;;;;;5417637;26;20003;-68
2024/04/19 08:30:18;;;;;;;35.38;22.00;;;7.40;99.90;;;;;;5417341;26;19988;-68
2024/04/19 08:32:44;;;;;;;41.15;23.83;;;7.50;99.90;;;;;;5417743;26;19998;-69
2024/04/19 08:35:10;;;;;;;43.78;25.02;;;7.50;99.90;;;;;;5417561;26;19995;-68
2024/04/19 08:37:35;;;;;;;40.65;24.27;;;7.50;99.90;;;;;;5417764;26;19992;-68
2024/04/19 08:40:01;;;;;;;39.42;24.35;;;7.60;99.90;;;;;;5417267;26;20037;-68
2024/04/19 08:42:26;;;;;;;39.90;25.50;;;7.60;99.90;;;;;;5417885;26;20456;-68
2024/04/19 08:44:54;;;;;;;41.67;23.58;;;7.70;99.90;;;;;;5417050;26;20007;-68
2024/04/19 08:47:20;;;;;;;41.70;24.95;;;7.80;99.90;;;;;;5417853;26;19992;-69
2024/04/19 08:49:47;;;;;;;37.28;24.38;;;8.10;99.90;;;;;;5417303;26;19988;-69
2024/04/19 08:52:16;;;;;;;34.25;22.42;;;8.30;99.90;;;;;;5417055;26;20002;-69
2024/04/19 08:54:43;;;;;;;33.58;22.63;;;8.40;99.90;;;;;;5416958;26;20064;-68
2024/04/19 08:57:10;;;;;;;31.00;21.02;;;8.40;99.90;;;;;;5417142;26;19998;-69
2024/04/19 08:59:37;;;;;;;29.55;20.27;;;8.40;99.90;;;;;;5417109;26;19988;-68
2024/04/19 09:02:02;;;;;;;27.15;19.55;;;8.40;99.90;;;;;;5416994;26;20016;-69
2024/04/19 09:04:28;;;;;;;27.40;19.70;;;8.40;99.90;;;;;;5416824;26;20006;-69
2024/04/19 09:06:54;;;;;;;27.67;20.38;;;8.40;99.90;;;;;;5417127;26;19987;-69
2024/04/19 09:09:20;;;;;;;25.33;18.88;;;8.40;99.90;;;;;;5420430;26;19987;-69
2024/04/19 09:11:48;;;;;;;25.15;18.25;;;8.40;99.90;;;;;;5420487;26;20024;-68
2024/04/19 09:14:14;;;;;;;20.77;15.75;;;8.40;99.90;;;;;;5420443;26;20333;-69
2024/04/19 09:16:41;;;;;;;23.10;17.80;;;8.50;99.90;;;;;;5420183;26;20002;-69
2024/04/19 09:19:07;;;;;;;25.42;17.45;;;8.50;99.90;;;;;;5420246;26;20000;-69
2024/04/19 09:21:33;;;;;;;21.23;16.25;;;8.70;99.90;;;;;;5420151;26;20003;-68
2024/04/19 09:23:59;;;;;;;23.42;17.35;;;9.00;99.90;;;;;;5420148;26;19988;-69
2024/04/19 09:26:25;;;;;;;22.10;16.23;;;9.40;99.90;;;;;;5419968;26;19995;-69
2024/04/19 09:28:52;;;;;;;17.73;15.05;;;9.70;99.90;;;;;;5420131;26;19992;-69
2024/04/19 09:31:18;;;;;;;13.13;10.95;;;10.10;99.90;;;;;;5419884;26;20032;-68
2024/04/19 09:33:44;;;;;;;11.45;9.98;;;10.00;99.90;;;;;;5419789;26;20392;-73
2024/04/19 09:36:18;;;;;;;11.88;9.00;;;10.30;99.90;;;;;;5420082;26;20426;-69
2024/04/19 09:38:44;;;;;;;7.30;6.47;;;10.70;99.90;;;;;;5419530;26;19999;-69
2024/04/19 09:41:14;;;;;;;7.72;6.05;;;11.10;99.90;;;;;;5419954;26;19987;-69
2024/04/19 09:43:48;;;;;;;6.28;4.95;;;11.30;99.90;;;;;;5420028;26;19991;-69
2024/04/19 09:46:21;;;;;;;9.55;5.43;;;11.30;99.90;;;;;;5419693;26;19992;-69
2024/04/19 09:48:47;;;;;;;5.38;4.20;;;11.30;99.90;;;;;;5419432;26;19999;-69
2024/04/19 09:51:15;;;;;;;4.70;3.80;;;11.30;99.90;;;;;;5419539;26;20002;-69
2024/04/19 09:53:44;;;;;;;5.82;4.00;;;11.10;99.90;;;;;;5419202;26;20024;-68
2024/04/19 09:59:14;;;;;;;6.07;3.75;;;10.80;99.90;;;;;;5472132;26;20323;-68
2024/04/19 10:01:40;;;;;;;6.28;3.83;;;10.60;99.90;;;;;;5435523;26;20313;-68
2024/04/19 10:04:09;;;;;;;5.40;3.80;;;10.50;99.90;;;;;;5435398;26;20019;-67
2024/04/19 10:06:38;;;;;;;6.82;4.05;;;10.30;99.90;;;;;;5434324;26;20453;-68
2024/04/19 10:09:09;;;;;;;8.30;3.97;;;10.30;99.90;;;;;;5436181;26;20024;-68
2024/04/19 10:11:38;;;;;;;4.13;3.13;;;10.10;99.90;;;;;;5435900;26;19995;-68
2024/04/19 10:14:05;;;;;;;5.38;2.80;;;10.00;99.90;;;;;;5435716;26;20329;-69
2024/04/19 10:16:31;;;;;;;3.58;2.85;;;10.00;99.90;;;;;;5435779;26;20019;-69
2024/04/19 10:18:57;;;;;;;8.43;3.63;;;9.90;99.90;;;;;;5435931;26;19987;-69
2024/04/19 10:21:26;;;;;;;5.65;3.28;;;9.80;99.90;;;;;;5435583;26;20002;-70
2024/04/19 10:23:51;;;;;;;5.07;2.63;;;9.70;99.90;;;;;;5435463;26;19991;-70
2024/04/19 10:26:25;;;;;;;5.40;2.63;;;9.60;99.90;;;;;;5435519;26;20064;-69
2024/04/19 10:28:55;;;;;;;9.13;2.53;;;9.50;99.90;;;;;;5435586;26;19991;-69
2024/04/19 10:31:22;;;;;;;6.00;2.60;;;9.50;99.90;;;;;;5435450;26;20041;-69
2024/04/19 10:33:48;;;;;;;5.15;2.75;;;9.50;99.90;;;;;;5435384;26;19991;-69
2024/04/19 10:36:13;;;;;;;8.63;2.80;;;9.60;99.90;;;;;;5435659;26;19994;-69
2024/04/19 10:38:39;;;;;;;8.25;2.97;;;9.50;99.90;;;;;;5435195;26;19991;-69
2024/04/19 10:41:05;;;;;;;9.52;2.72;;;9.70;99.90;;;;;;5435314;26;19994;-69
2024/04/19 10:43:31;;;;;;;8.13;3.65;;;9.60;99.90;;;;;;5435555;26;20317;-69
2024/04/19 10:45:58;;;;;;;5.07;2.65;;;9.60;99.90;;;;;;5435584;26;19999;-69
2024/04/19 10:48:23;;;;;;;7.05;2.45;;;9.50;99.90;;;;;;5435262;26;20019;-70
2024/04/19 10:50:49;;;;;;;6.63;3.03;;;9.50;99.90;;;;;;5435397;26;20060;-69
2024/04/19 10:53:17;;;;;;;8.60;2.70;;;9.50;99.90;;;;;;5435353;26;19995;-69
2024/04/19 10:55:44;;;;;;;8.00;2.67;;;9.50;99.90;;;;;;5435164;26;19987;-69
2024/04/19 10:58:11;;;;;;;5.43;2.35;;;9.50;99.90;;;;;;5434873;26;20534;-69
2024/04/19 11:00:37;;;;;;;5.25;2.40;;;9.60;99.90;;;;;;5435552;26;19987;-69
2024/04/19 11:03:03;;;;;;;2.88;1.98;;;9.40;99.90;;;;;;5435458;26;20325;-69
2024/04/19 11:05:29;;;;;;;4.22;2.40;;;9.40;99.90;;;;;;5435147;26;20457;-69
2024/04/19 11:07:55;;;;;;;4.65;2.10;;;9.50;99.90;;;;;;5435360;26;20433;-69
2024/04/19 11:10:20;;;;;;;3.67;2.10;;;9.50;99.90;;;;;;5421453;26;20064;-69
2024/04/19 11:12:46;;;;;;;3.83;1.67;;;9.50;99.90;;;;;;5419813;26;20068;-69
2024/04/19 11:15:12;;;;;;;3.65;1.50;;;9.60;99.90;;;;;;5384762;26;20003;-69
2024/04/19 11:17:39;;;;;;;5.05;1.63;;;9.80;99.90;;;;;;5384270;26;19992;-69
2024/04/19 11:20:05;;;;;;;4.10;1.40;;;9.90;99.90;;;;;;5384314;26;20443;-69
2024/04/19 11:22:36;;;;;;;3.22;1.30;;;9.90;99.90;;;;;;5383866;26;19992;-69
2024/04/19 11:25:01;;;;;;;2.92;1.70;;;9.80;99.90;;;;;;5384210;26;20003;-69
2024/04/19 11:27:27;;;;;;;2.58;1.50;;;10.10;99.90;;;;;;5383801;26;20016;-70
2024/04/19 11:29:53;;;;;;;1.70;1.42;;;10.00;99.90;;;;;;5383850;26;19992;-70
2024/04/19 11:32:23;;;;;;;3.58;1.85;;;10.20;99.90;;;;;;5383985;26;20319;-69
2024/04/19 11:34:49;;;;;;;5.55;2.15;;;10.20;99.90;;;;;;5383921;26;20011;-70
2024/04/19 11:37:15;;;;;;;3.05;1.67;;;10.10;99.90;;;;;;5383842;26;19996;-70
2024/04/19 11:39:45;;;;;;;3.42;1.67;;;10.20;99.90;;;;;;5383904;26;20342;-69
2024/04/19 11:42:12;;;;;;;5.10;1.95;;;10.20;99.90;;;;;;5384132;26;20486;-70
2024/04/19 11:44:39;;;;;;;4.93;1.23;;;10.20;99.90;;;;;;5383531;26;20503;-67
2024/04/19 11:47:04;;;;;;;1.95;1.50;;;10.20;99.90;;;;;;5383703;26;20237;-67
2024/04/19 11:49:30;;;;;;;2.80;1.33;;;10.30;99.90;;;;;;5383742;26;20397;-67
2024/04/19 11:51:56;;;;;;;1.92;1.15;;;10.30;99.90;;;;;;5383805;26;19999;-67
2024/04/19 11:54:24;;;;;;;0.90;0.90;;;10.50;99.90;;;;;;5383317;26;20338;-67
2024/04/19 11:56:49;;;;;;;2.80;0.95;;;10.50;99.90;;;;;;5383133;26;19993;-67
2024/04/19 11:59:18;;;;;;;4.35;0.90;;;10.70;99.90;;;;;;5383994;26;20003;-67
2024/04/19 12:01:43;;;;;;;0.80;0.80;;;10.90;99.90;;;;;;5384062;26;20069;-67
2024/04/19 12:04:09;;;;;;;1.83;0.88;;;11.00;99.90;;;;;;5383781;26;19996;-67
2024/04/19 12:06:35;;;;;;;1.55;0.80;;;10.80;99.90;;;;;;5383469;26;19988;-67
2024/04/19 12:09:01;;;;;;;2.85;1.02;;;11.20;99.90;;;;;;5383730;26;19999;-67
2024/04/19 12:11:26;;;;;;;0.80;0.80;;;11.60;99.90;;;;;;5383485;26;20377;-67
2024/04/19 12:13:52;;;;;;;0.63;0.60;;;11.80;99.90;;;;;;5383471;26;20020;-67
2024/04/19 12:16:18;;;;;;;1.98;0.70;;;11.70;90.40;;;;;;5383308;26;20038;-68
2024/04/19 12:18:44;;;;;;;0.95;0.52;;;11.30;80.90;;;;;;5383704;26;20442;-67
2024/04/19 12:21:11;;;;;;;0.98;0.70;;;11.10;94.10;;;;;;5365554;26;20004;-67
2024/04/19 12:23:37;;;;;;;2.40;0.90;;;10.80;82.20;;;;;;5365737;26;20003;-68
2024/04/19 12:26:03;;;;;;;0.85;0.50;;;10.60;99.90;;;;;;5383048;26;19992;-67
2024/04/19 12:28:28;;;;;;;2.90;0.80;;;10.30;99.90;;;;;;5383560;26;19993;-68
2024/04/19 12:30:54;;;;;;;0.57;0.50;;;9.90;99.90;;;;;;5383271;26;20091;-68
2024/04/19 12:33:21;;;;;;;2.63;0.80;;;9.70;99.90;;;;;;5383952;26;20457;-70
2024/04/19 12:35:47;;;;;;;1.58;0.40;;;9.10;99.90;;;;;;5383238;26;20322;-69
2024/04/19 12:38:14;;;;;;;0.95;0.30;;;8.70;99.90;;;;;;5383426;26;19992;-69
2024/04/19 12:40:40;;;;;;;1.20;0.43;;;8.80;99.90;;;;;;5382946;26;20064;-68
2024/04/19 12:43:07;;;;;;;0.68;0.22;;;9.00;99.90;;;;;;5383054;26;20035;-68
2024/04/19 12:45:33;;;;;;;2.25;0.50;;;9.30;99.90;;;;;;5383095;26;20326;-68
2024/04/19 12:48:04;;;;;;;0.30;0.30;;;9.90;99.90;;;;;;5382992;26;20000;-68